sensor_id;sensor_type;location;lat;lon;timestamp;pressure;altitude;pressure_sealevel;temperature;humidity
57628;BME280;43451;49.060;10.616;2022-08-19T00:00:14;96196.22;;;19.36;97.96
57628;BME280;43451;49.060;10.616;2022-08-19T00:02:41;96187.22;;;19.35;98.99
57628;BME280;43451;49.060;10.616;2022-08-19T00:05:07;96170.19;;;19.46;98.31
57628;BME280;43451;49.060;10.616;2022-08-19T00:07:32;96178.00;;;19.38;97.99
57628;BME280;43451;49.060;10.616;2022-08-19T00:09:57;96170.19;;;19.46;98.32
57628;BME280;43451;49.060;10.616;2022-08-19T00:12:23;96168.53;;;19.39;97.66
57628;BME280;43451;49.060;10.616;2022-08-19T00:14:48;96176.19;;;19.35;98.53
57628;BME280;43451;49.060;10.616;2022-08-19T00:17:13;96168.81;;;19.41;97.80
57628;BME280;43451;49.060;10.616;2022-08-19T00:19:38;96166.31;;;19.53;97.34
57628;BME280;43451;49.060;10.616;2022-08-19T00:22:04;96178.63;;;19.33;98.34
57628;BME280;43451;49.060;10.616;2022-08-19T00:24:30;96177.13;;;19.32;98.65
57628;BME280;43451;49.060;10.616;2022-08-19T00:26:56;96188.13;;;19.41;97.98
57628;BME280;43451;49.060;10.616;2022-08-19T00:29:22;96182.63;;;19.32;98.58
57628;BME280;43451;49.060;10.616;2022-08-19T00:31:48;96180.47;;;19.27;99.10
57628;BME280;43451;49.060;10.616;2022-08-19T00:34:15;96180.16;;;19.34;98.55
57628;BME280;43451;49.060;10.616;2022-08-19T00:36:40;96179.25;;;19.28;99.41
57628;BME280;43451;49.060;10.616;2022-08-19T00:39:06;96180.16;;;19.25;99.13
57628;BME280;43451;49.060;10.616;2022-08-19T00:41:31;96182.91;;;19.25;99.55
57628;BME280;43451;49.060;10.616;2022-08-19T00:46:22;96171.28;;;19.30;99.03
57628;BME280;43451;49.060;10.616;2022-08-19T00:48:47;96174.34;;;19.32;98.98
57628;BME280;43451;49.060;10.616;2022-08-19T00:51:12;96179.56;;;19.30;99.00
57628;BME280;43451;49.060;10.616;2022-08-19T00:53:38;96175.13;;;19.33;98.00
57628;BME280;43451;49.060;10.616;2022-08-19T00:56:04;96170.94;;;19.46;97.93
57628;BME280;43451;49.060;10.616;2022-08-19T00:58:32;96170.97;;;19.37;98.28
57628;BME280;43451;49.060;10.616;2022-08-19T01:00:58;96165.44;;;19.46;97.21
57628;BME280;43451;49.060;10.616;2022-08-19T01:03:23;96162.66;;;19.46;97.44
57628;BME280;43451;49.060;10.616;2022-08-19T01:05:49;96166.69;;;19.36;98.79
57628;BME280;43451;49.060;10.616;2022-08-19T01:08:16;96176.34;;;19.32;98.34
57628;BME280;43451;49.060;10.616;2022-08-19T01:10:43;96178.91;;;19.54;97.08
57628;BME280;43451;49.060;10.616;2022-08-19T01:13:10;96184.44;;;19.35;98.20
57628;BME280;43451;49.060;10.616;2022-08-19T01:15:39;96193.00;;;19.28;98.64
57628;BME280;43451;49.060;10.616;2022-08-19T01:18:07;96198.84;;;19.21;99.80
57628;BME280;43451;49.060;10.616;2022-08-19T01:20:33;96208.03;;;19.18;100.00
57628;BME280;43451;49.060;10.616;2022-08-19T01:22:59;96208.34;;;19.20;99.89
57628;BME280;43451;49.060;10.616;2022-08-19T01:25:27;96190.59;;;19.12;100.00
57628;BME280;43451;49.060;10.616;2022-08-19T01:27:54;96193.97;;;19.16;99.87
57628;BME280;43451;49.060;10.616;2022-08-19T01:30:22;96187.81;;;19.30;99.55
57628;BME280;43451;49.060;10.616;2022-08-19T01:32:49;96192.41;;;19.33;98.33
57628;BME280;43451;49.060;10.616;2022-08-19T01:35:15;96187.81;;;19.30;98.38
57628;BME280;43451;49.060;10.616;2022-08-19T01:37:44;96190.59;;;19.21;99.72
57628;BME280;43451;49.060;10.616;2022-08-19T01:40:09;96196.22;;;19.36;98.14
57628;BME280;43451;49.060;10.616;2022-08-19T01:42:35;96190.25;;;19.28;98.09
57628;BME280;43451;49.060;10.616;2022-08-19T01:45:00;96193.06;;;19.19;99.27
57628;BME280;43451;49.060;10.616;2022-08-19T01:47:25;96199.13;;;19.41;97.71
57628;BME280;43451;49.060;10.616;2022-08-19T01:49:51;96198.38;;;19.32;98.07
57628;BME280;43451;49.060;10.616;2022-08-19T01:52:16;96192.13;;;19.22;98.85
57628;BME280;43451;49.060;10.616;2022-08-19T01:54:41;96187.22;;;19.26;98.43
57628;BME280;43451;49.060;10.616;2022-08-19T01:57:08;96183.78;;;19.49;97.64
57628;BME280;43451;49.060;10.616;2022-08-19T01:59:35;96185.03;;;19.39;97.70
57628;BME280;43451;49.060;10.616;2022-08-19T02:02:01;96182.19;;;19.15;99.39
57628;BME280;43451;49.060;10.616;2022-08-19T02:04:27;96196.09;;;19.21;99.38
57628;BME280;43451;49.060;10.616;2022-08-19T02:06:52;96199.63;;;19.12;99.86
57628;BME280;43451;49.060;10.616;2022-08-19T02:09:18;96214.19;;;19.04;100.00
57628;BME280;43451;49.060;10.616;2022-08-19T02:11:43;96223.81;;;18.99;100.00
57628;BME280;43451;49.060;10.616;2022-08-19T02:14:09;96223.97;;;18.95;100.00
57628;BME280;43451;49.060;10.616;2022-08-19T02:16:34;96242.31;;;18.89;100.00
57628;BME280;43451;49.060;10.616;2022-08-19T02:19:00;96233.44;;;18.94;100.00
57628;BME280;43451;49.060;10.616;2022-08-19T02:21:26;96240.94;;;18.94;100.00
57628;BME280;43451;49.060;10.616;2022-08-19T02:23:51;96236.50;;;18.87;100.00
57628;BME280;43451;49.060;10.616;2022-08-19T02:26:17;96245.97;;;18.95;100.00
57628;BME280;43451;49.060;10.616;2022-08-19T02:28:43;96254.09;;;18.90;100.00
57628;BME280;43451;49.060;10.616;2022-08-19T02:31:09;96258.22;;;18.94;100.00
57628;BME280;43451;49.060;10.616;2022-08-19T02:33:35;96254.25;;;18.95;100.00
57628;BME280;43451;49.060;10.616;2022-08-19T02:36:03;96254.25;;;18.95;100.00
57628;BME280;43451;49.060;10.616;2022-08-19T02:38:28;96251.66;;;19.10;100.00
57628;BME280;43451;49.060;10.616;2022-08-19T02:40:55;96251.19;;;19.21;100.00
57628;BME280;43451;49.060;10.616;2022-08-19T02:43:21;96236.22;;;19.04;100.00
57628;BME280;43451;49.060;10.616;2022-08-19T02:45:47;96227.63;;;19.01;100.00
57628;BME280;43451;49.060;10.616;2022-08-19T02:48:17;96227.78;;;18.98;100.00
57628;BME280;43451;49.060;10.616;2022-08-19T02:50:43;96235.88;;;18.92;100.00
57628;BME280;43451;49.060;10.616;2022-08-19T02:53:08;96232.53;;;18.88;100.00
57628;BME280;43451;49.060;10.616;2022-08-19T02:55:34;96234.53;;;18.88;100.00
57628;BME280;43451;49.060;10.616;2022-08-19T02:57:59;96229.31;;;18.99;100.00
57628;BME280;43451;49.060;10.616;2022-08-19T03:00:25;96221.53;;;18.97;100.00
57628;BME280;43451;49.060;10.616;2022-08-19T03:02:51;96223.34;;;19.10;100.00
57628;BME280;43451;49.060;10.616;2022-08-19T03:05:16;96218.78;;;18.97;100.00
57628;BME280;43451;49.060;10.616;2022-08-19T03:07:41;96226.56;;;18.90;100.00
57628;BME280;43451;49.060;10.616;2022-08-19T03:10:07;96235.28;;;18.88;100.00
57628;BME280;43451;49.060;10.616;2022-08-19T03:12:35;96225.63;;;18.93;100.00
57628;BME280;43451;49.060;10.616;2022-08-19T03:15:00;96222.75;;;18.78;100.00
57628;BME280;43451;49.060;10.616;2022-08-19T03:17:25;96227.03;;;18.79;100.00
57628;BME280;43451;49.060;10.616;2022-08-19T03:19:51;96216.44;;;18.68;100.00
57628;BME280;43451;49.060;10.616;2022-08-19T03:22:16;96225.44;;;18.60;100.00
57628;BME280;43451;49.060;10.616;2022-08-19T03:24:41;96219.19;;;18.59;100.00
57628;BME280;43451;49.060;10.616;2022-08-19T03:27:08;96220.88;;;18.66;100.00
57628;BME280;43451;49.060;10.616;2022-08-19T03:29:33;96228.25;;;18.78;100.00
57628;BME280;43451;49.060;10.616;2022-08-19T03:32:02;96231.72;;;18.69;100.00
57628;BME280;43451;49.060;10.616;2022-08-19T03:34:29;96235.59;;;18.90;100.00
57628;BME280;43451;49.060;10.616;2022-08-19T03:36:55;96234.19;;;18.76;100.00
57628;BME280;43451;49.060;10.616;2022-08-19T03:39:21;96233.13;;;18.74;100.00
57628;BME280;43451;49.060;10.616;2022-08-19T03:41:47;96235.06;;;18.64;100.00
57628;BME280;43451;49.060;10.616;2022-08-19T03:44:15;96226.06;;;18.64;100.00
57628;BME280;43451;49.060;10.616;2022-08-19T03:46:42;96222.53;;;18.63;100.00
57628;BME280;43451;49.060;10.616;2022-08-19T03:49:08;96225.44;;;18.60;100.00
57628;BME280;43451;49.060;10.616;2022-08-19T03:51:34;96227.13;;;18.57;100.00
57628;BME280;43451;49.060;10.616;2022-08-19T03:54:01;96223.59;;;18.56;100.00
57628;BME280;43451;49.060;10.616;2022-08-19T03:56:27;96221.78;;;18.53;100.00
57628;BME280;43451;49.060;10.616;2022-08-19T03:58:53;96212.28;;;18.54;100.00
57628;BME280;43451;49.060;10.616;2022-08-19T04:01:19;96209.69;;;18.51;100.00
57628;BME280;43451;49.060;10.616;2022-08-19T04:03:45;96212.00;;;18.52;100.00
57628;BME280;43451;49.060;10.616;2022-08-19T04:06:18;96219.16;;;18.50;100.00
57628;BME280;43451;49.060;10.616;2022-08-19T04:08:46;96211.66;;;18.50;100.00
57628;BME280;43451;49.060;10.616;2022-08-19T04:11:13;96212.75;;;18.53;100.00
57628;BME280;43451;49.060;10.616;2022-08-19T04:13:38;96213.84;;;18.55;100.00
57628;BME280;43451;49.060;10.616;2022-08-19T04:16:05;96208.63;;;18.58;100.00
57628;BME280;43451;49.060;10.616;2022-08-19T04:18:31;96210.47;;;18.61;100.00
57628;BME280;43451;49.060;10.616;2022-08-19T04:20:56;96216.59;;;18.55;100.00
57628;BME280;43451;49.060;10.616;2022-08-19T04:23:22;96213.84;;;18.55;100.00
57628;BME280;43451;49.060;10.616;2022-08-19T04:25:48;96218.69;;;18.51;100.00
57628;BME280;43451;49.060;10.616;2022-08-19T04:28:13;96217.19;;;18.50;100.00
57628;BME280;43451;49.060;10.616;2022-08-19T04:30:39;96231.25;;;18.52;100.00
57628;BME280;43451;49.060;10.616;2022-08-19T04:33:05;96241.63;;;18.48;100.00
57628;BME280;43451;49.060;10.616;2022-08-19T04:35:34;96246.97;;;18.52;100.00
57628;BME280;43451;49.060;10.616;2022-08-19T04:38:00;96248.53;;;18.53;100.00
57628;BME280;43451;49.060;10.616;2022-08-19T04:40:25;96263.34;;;18.55;100.00
57628;BME280;43451;49.060;10.616;2022-08-19T04:43:09;96259.81;;;18.55;100.00
57628;BME280;43451;49.060;10.616;2022-08-19T04:45:37;96260.59;;;18.55;100.00
57628;BME280;43451;49.060;10.616;2022-08-19T04:48:02;96260.13;;;18.57;100.00
57628;BME280;43451;49.060;10.616;2022-08-19T04:50:28;96248.06;;;18.54;100.00
57628;BME280;43451;49.060;10.616;2022-08-19T04:52:53;96256.94;;;18.59;100.00
57628;BME280;43451;49.060;10.616;2022-08-19T04:55:20;96252.97;;;18.60;100.00
57628;BME280;43451;49.060;10.616;2022-08-19T04:57:45;96248.97;;;18.61;100.00
57628;BME280;43451;49.060;10.616;2022-08-19T05:00:10;96254.19;;;18.68;100.00
57628;BME280;43451;49.060;10.616;2022-08-19T05:02:36;96253.56;;;18.64;100.00
57628;BME280;43451;49.060;10.616;2022-08-19T05:05:02;96263.97;;;18.60;100.00
57628;BME280;43451;49.060;10.616;2022-08-19T05:07:27;96266.41;;;18.58;100.00
57628;BME280;43451;49.060;10.616;2022-08-19T05:09:54;96272.22;;;18.60;100.00
57628;BME280;43451;49.060;10.616;2022-08-19T05:12:20;96277.09;;;18.65;100.00
57628;BME280;43451;49.060;10.616;2022-08-19T05:17:13;96292.09;;;18.64;100.00
57628;BME280;43451;49.060;10.616;2022-08-19T05:19:39;96296.38;;;18.65;100.00
57628;BME280;43451;49.060;10.616;2022-08-19T05:22:23;96300.66;;;18.66;100.00
57628;BME280;43451;49.060;10.616;2022-08-19T05:25:00;96309.38;;;18.64;100.00
57628;BME280;43451;49.060;10.616;2022-08-19T05:27:25;96314.44;;;18.66;100.00
57628;BME280;43451;49.060;10.616;2022-08-19T05:29:51;96321.13;;;18.65;100.00
57628;BME280;43451;49.060;10.616;2022-08-19T05:32:16;96307.38;;;18.65;100.00
57628;BME280;43451;49.060;10.616;2022-08-19T05:34:41;96308.16;;;18.65;100.00
57628;BME280;43451;49.060;10.616;2022-08-19T05:37:07;96311.69;;;18.66;100.00
57628;BME280;43451;49.060;10.616;2022-08-19T05:39:34;96320.22;;;18.68;100.00
57628;BME280;43451;49.060;10.616;2022-08-19T05:42:01;96313.97;;;18.67;100.00
57628;BME280;43451;49.060;10.616;2022-08-19T05:44:28;96315.03;;;18.70;100.00
57628;BME280;43451;49.060;10.616;2022-08-19T05:46:58;96313.88;;;18.80;100.00
57628;BME280;43451;49.060;10.616;2022-08-19T05:49:24;96310.19;;;18.83;100.00
57628;BME280;43451;49.060;10.616;2022-08-19T05:51:50;96307.03;;;19.03;100.00
57628;BME280;43451;49.060;10.616;2022-08-19T05:54:15;96310.22;;;19.01;100.00
57628;BME280;43451;49.060;10.616;2022-08-19T05:56:41;96305.63;;;18.98;100.00
57628;BME280;43451;49.060;10.616;2022-08-19T05:59:07;96291.25;;;18.94;100.00
57628;BME280;43451;49.060;10.616;2022-08-19T06:01:34;96307.63;;;18.98;100.00
57628;BME280;43451;49.060;10.616;2022-08-19T06:04:00;96311.31;;;18.95;100.00
57628;BME280;43451;49.060;10.616;2022-08-19T06:06:26;96311.91;;;18.99;100.00
57628;BME280;43451;49.060;10.616;2022-08-19T06:08:51;96321.84;;;18.87;100.00
57628;BME280;43451;49.060;10.616;2022-08-19T06:11:18;96320.00;;;18.93;100.00
57628;BME280;43451;49.060;10.616;2022-08-19T06:13:44;96315.88;;;18.89;100.00
57628;BME280;43451;49.060;10.616;2022-08-19T06:16:12;96306.22;;;18.93;100.00
57628;BME280;43451;49.060;10.616;2022-08-19T06:18:38;96313.31;;;19.04;100.00
57628;BME280;43451;49.060;10.616;2022-08-19T06:21:03;96302.44;;;19.00;100.00
57628;BME280;43451;49.060;10.616;2022-08-19T06:23:29;96303.81;;;19.05;100.00
57628;BME280;43451;49.060;10.616;2022-08-19T06:25:55;96299.53;;;19.04;100.00
57628;BME280;43451;49.060;10.616;2022-08-19T06:28:21;96291.88;;;18.98;100.00
57628;BME280;43451;49.060;10.616;2022-08-19T06:30:47;96299.22;;;19.11;100.00
57628;BME280;43451;49.060;10.616;2022-08-19T06:33:13;96293.41;;;19.09;100.00
57628;BME280;43451;49.060;10.616;2022-08-19T06:35:39;96297.22;;;19.11;100.00
57628;BME280;43451;49.060;10.616;2022-08-19T06:38:04;96305.06;;;19.13;100.00
57628;BME280;43451;49.060;10.616;2022-08-19T06:40:29;96302.59;;;19.15;100.00
57628;BME280;43451;49.060;10.616;2022-08-19T06:42:55;96304.13;;;19.16;100.00
57628;BME280;43451;49.060;10.616;2022-08-19T06:45:21;96305.06;;;19.13;100.00
57628;BME280;43451;49.060;10.616;2022-08-19T06:47:47;96303.81;;;19.14;100.00
57628;BME280;43451;49.060;10.616;2022-08-19T06:50:13;96307.03;;;19.21;100.00
57628;BME280;43451;49.060;10.616;2022-08-19T06:52:39;96314.69;;;19.27;99.75
57628;BME280;43451;49.060;10.616;2022-08-19T06:55:04;96322.94;;;19.27;99.22
57628;BME280;43451;49.060;10.616;2022-08-19T06:57:30;96321.88;;;19.24;99.74
57628;BME280;43451;49.060;10.616;2022-08-19T06:59:57;96325.56;;;19.30;99.63
57628;BME280;43451;49.060;10.616;2022-08-19T07:02:24;96315.00;;;19.19;99.90
57628;BME280;43451;49.060;10.616;2022-08-19T07:04:51;96326.16;;;19.16;100.00
57628;BME280;43451;49.060;10.616;2022-08-19T07:07:17;96313.31;;;19.04;100.00
57628;BME280;43451;49.060;10.616;2022-08-19T07:09:43;96310.84;;;19.06;100.00
57628;BME280;43451;49.060;10.616;2022-08-19T07:12:10;96311.47;;;19.19;100.00
57628;BME280;43451;49.060;10.616;2022-08-19T07:14:36;96308.84;;;19.15;100.00
57628;BME280;43451;49.060;10.616;2022-08-19T07:17:03;96314.69;;;19.08;100.00
57628;BME280;43451;49.060;10.616;2022-08-19T07:19:29;96322.91;;;18.99;100.00
57628;BME280;43451;49.060;10.616;2022-08-19T07:21:54;96326.44;;;19.09;100.00
57628;BME280;43451;49.060;10.616;2022-08-19T07:24:21;96332.59;;;19.22;100.00
57628;BME280;43451;49.060;10.616;2022-08-19T07:26:49;96329.03;;;19.12;100.00
57628;BME280;43451;49.060;10.616;2022-08-19T07:29:15;96333.81;;;19.21;100.00
57628;BME280;43451;49.060;10.616;2022-08-19T07:31:41;96335.34;;;19.22;100.00
57628;BME280;43451;49.060;10.616;2022-08-19T07:34:07;96331.97;;;19.27;99.54
57628;BME280;43451;49.060;10.616;2022-08-19T07:36:38;96328.78;;;19.29;99.60
57628;BME280;43451;49.060;10.616;2022-08-19T07:39:08;96335.81;;;19.30;100.00
57628;BME280;43451;49.060;10.616;2022-08-19T07:41:34;96334.56;;;19.31;99.58
57628;BME280;43451;49.060;10.616;2022-08-19T07:44:00;96339.31;;;19.21;100.00
57628;BME280;43451;49.060;10.616;2022-08-19T07:46:29;96336.28;;;19.19;100.00
57628;BME280;43451;49.060;10.616;2022-08-19T07:48:56;96334.28;;;19.10;100.00
57628;BME280;43451;49.060;10.616;2022-08-19T07:51:21;96339.94;;;19.16;100.00
57628;BME280;43451;49.060;10.616;2022-08-19T07:53:47;96343.47;;;19.25;99.06
57628;BME280;43451;49.060;10.616;2022-08-19T07:56:15;96342.56;;;19.38;98.68
57628;BME280;43451;49.060;10.616;2022-08-19T07:58:41;96352.34;;;19.30;100.00
57628;BME280;43451;49.060;10.616;2022-08-19T08:01:08;96339.16;;;19.34;99.20
57628;BME280;43451;49.060;10.616;2022-08-19T08:03:36;96346.34;;;19.31;98.61
57628;BME280;43451;49.060;10.616;2022-08-19T08:06:20;96339.94;;;19.34;98.64
57628;BME280;43451;49.060;10.616;2022-08-19T08:09:04;96349.09;;;19.31;99.97
57628;BME280;43451;49.060;10.616;2022-08-19T08:14:17;96341.63;;;19.32;98.51
57628;BME280;43451;49.060;10.616;2022-08-19T08:16:42;96335.66;;;19.42;98.60
57628;BME280;43451;49.060;10.616;2022-08-19T08:19:09;96333.81;;;19.48;98.78
57628;BME280;43451;49.060;10.616;2022-08-19T08:21:34;96337.34;;;19.49;98.89
57628;BME280;43451;49.060;10.616;2022-08-19T08:23:59;96328.00;;;19.65;98.74
57628;BME280;43451;49.060;10.616;2022-08-19T08:26:25;96331.53;;;19.75;97.13
57628;BME280;43451;49.060;10.616;2022-08-19T08:28:50;96334.44;;;19.80;97.75
57628;BME280;43451;49.060;10.616;2022-08-19T08:31:16;96336.56;;;19.85;98.78
57628;BME280;43451;49.060;10.616;2022-08-19T08:33:43;96330.38;;;20.09;95.70
57628;BME280;43451;49.060;10.616;2022-08-19T08:36:08;96321.94;;;20.12;93.65
57628;BME280;43451;49.060;10.616;2022-08-19T08:38:34;96331.25;;;20.24;95.55
57628;BME280;43451;49.060;10.616;2022-08-19T08:41:01;96331.22;;;20.33;94.49
57628;BME280;43451;49.060;10.616;2022-08-19T08:43:35;96325.81;;;20.39;94.67
57628;BME280;43451;49.060;10.616;2022-08-19T08:46:06;96334.38;;;20.50;92.76
57628;BME280;43451;49.060;10.616;2022-08-19T08:51:12;96328.84;;;20.50;93.13
57628;BME280;43451;49.060;10.616;2022-08-19T08:53:40;96327.50;;;20.46;91.73
57628;BME280;43451;49.060;10.616;2022-08-19T08:56:08;96327.38;;;20.40;92.89
57628;BME280;43451;49.060;10.616;2022-08-19T08:58:48;96324.31;;;20.29;95.18
57628;BME280;43451;49.060;10.616;2022-08-19T09:01:16;96330.00;;;20.25;95.77
57628;BME280;43451;49.060;10.616;2022-08-19T09:03:42;96330.13;;;20.40;93.83
57628;BME280;43451;49.060;10.616;2022-08-19T09:06:12;96336.25;;;20.35;92.54
57628;BME280;43451;49.060;10.616;2022-08-19T09:08:48;96340.75;;;20.23;94.48
57628;BME280;43451;49.060;10.616;2022-08-19T09:11:19;96343.50;;;20.23;93.98
57628;BME280;43451;49.060;10.616;2022-08-19T09:13:54;96349.88;;;20.38;92.28
57628;BME280;43451;49.060;10.616;2022-08-19T09:16:21;96345.31;;;20.35;91.91
57628;BME280;43451;49.060;10.616;2022-08-19T09:18:53;96348.53;;;20.34;90.97
57628;BME280;43451;49.060;10.616;2022-08-19T09:21:22;96351.75;;;20.32;91.25
57628;BME280;43451;49.060;10.616;2022-08-19T09:23:48;96350.84;;;20.26;90.93
57628;BME280;43451;49.060;10.616;2022-08-19T09:26:14;96344.75;;;20.22;91.73
57628;BME280;43451;49.060;10.616;2022-08-19T09:28:42;96348.00;;;20.11;92.80
57628;BME280;43451;49.060;10.616;2022-08-19T09:31:09;96339.84;;;20.17;92.12
57628;BME280;43451;49.060;10.616;2022-08-19T09:33:35;96341.72;;;20.11;93.38
57628;BME280;43451;49.060;10.616;2022-08-19T09:36:05;96340.47;;;20.21;92.68
57628;BME280;43451;49.060;10.616;2022-08-19T09:38:31;96335.09;;;20.27;91.79
57628;BME280;43451;49.060;10.616;2022-08-19T09:41:01;96342.13;;;20.28;91.88
57628;BME280;43451;49.060;10.616;2022-08-19T09:43:26;96342.56;;;20.26;93.19
57628;BME280;43451;49.060;10.616;2022-08-19T09:45:53;96340.28;;;20.25;92.29
57628;BME280;43451;49.060;10.616;2022-08-19T09:48:18;96343.66;;;20.20;92.59
57628;BME280;43451;49.060;10.616;2022-08-19T09:50:45;96343.84;;;20.16;92.64
57628;BME280;43451;49.060;10.616;2022-08-19T09:53:11;96348.16;;;20.08;92.37
57628;BME280;43451;49.060;10.616;2022-08-19T09:55:41;96348.63;;;20.06;93.65
57628;BME280;43451;49.060;10.616;2022-08-19T09:58:06;96346.16;;;20.08;92.85
57628;BME280;43451;49.060;10.616;2022-08-19T10:00:31;96344.75;;;20.13;93.48
57628;BME280;43451;49.060;10.616;2022-08-19T10:02:57;96348.31;;;20.04;93.16
57628;BME280;43451;49.060;10.616;2022-08-19T10:05:22;96357.66;;;20.07;92.79
57628;BME280;43451;49.060;10.616;2022-08-19T10:08:06;96359.66;;;20.06;92.23
57628;BME280;43451;49.060;10.616;2022-08-19T10:10:34;96355.81;;;20.04;92.42
57628;BME280;43451;49.060;10.616;2022-08-19T10:13:00;96363.66;;;19.96;92.76
57628;BME280;43451;49.060;10.616;2022-08-19T10:15:25;96357.50;;;20.01;93.42
57628;BME280;43451;49.060;10.616;2022-08-19T10:17:50;96363.66;;;20.05;92.84
57628;BME280;43451;49.060;10.616;2022-08-19T10:20:15;96364.72;;;20.08;92.53
57628;BME280;43451;49.060;10.616;2022-08-19T10:22:41;96359.97;;;20.08;91.93
57628;BME280;43451;49.060;10.616;2022-08-19T10:25:07;96360.13;;;20.05;91.90
57628;BME280;43451;49.060;10.616;2022-08-19T10:27:32;96368.25;;;19.99;92.31
57628;BME280;43451;49.060;10.616;2022-08-19T10:29:58;96375.75;;;19.99;92.42
57628;BME280;43451;49.060;10.616;2022-08-19T10:32:23;96374.84;;;19.92;93.91
57628;BME280;43451;49.060;10.616;2022-08-19T10:34:50;96374.34;;;20.03;92.86
57628;BME280;43451;49.060;10.616;2022-08-19T10:37:16;96377.28;;;20.00;92.99
57628;BME280;43451;49.060;10.616;2022-08-19T10:39:45;96374.22;;;19.98;93.47
57628;BME280;43451;49.060;10.616;2022-08-19T10:42:12;96370.41;;;19.95;94.19
57628;BME280;43451;49.060;10.616;2022-08-19T10:44:38;96369.94;;;19.97;93.54
57628;BME280;43451;49.060;10.616;2022-08-19T10:47:04;96373.75;;;19.99;92.97
57628;BME280;43451;49.060;10.616;2022-08-19T10:49:29;96383.72;;;19.87;94.29
57628;BME280;43451;49.060;10.616;2022-08-19T10:51:55;96388.31;;;19.90;94.06
57628;BME280;43451;49.060;10.616;2022-08-19T10:54:39;96384.19;;;19.86;95.41
57628;BME280;43451;49.060;10.616;2022-08-19T10:57:22;96389.41;;;19.84;93.99
57628;BME280;43451;49.060;10.616;2022-08-19T10:59:54;96377.63;;;19.83;93.58
57628;BME280;43451;49.060;10.616;2022-08-19T11:02:19;96383.56;;;19.91;93.40
57628;BME280;43451;49.060;10.616;2022-08-19T11:04:44;96376.22;;;19.79;94.80
57628;BME280;43451;49.060;10.616;2022-08-19T11:07:10;96375.13;;;19.94;93.26
57628;BME280;43451;49.060;10.616;2022-08-19T11:09:41;96362.31;;;19.82;94.57
57628;BME280;43451;49.060;10.616;2022-08-19T11:12:06;96374.84;;;19.92;93.14
57628;BME280;43451;49.060;10.616;2022-08-19T11:14:33;96370.09;;;19.93;93.05
57628;BME280;43451;49.060;10.616;2022-08-19T11:16:58;96373.16;;;19.95;93.46
57628;BME280;43451;49.060;10.616;2022-08-19T11:19:24;96366.00;;;19.79;95.01
57628;BME280;43451;49.060;10.616;2022-08-19T11:21:49;96362.75;;;19.90;94.55
57628;BME280;43451;49.060;10.616;2022-08-19T11:24:22;96367.78;;;20.01;93.53
57628;BME280;43451;49.060;10.616;2022-08-19T11:26:48;96362.91;;;19.96;95.77
57628;BME280;43451;49.060;10.616;2022-08-19T11:29:14;96361.50;;;19.91;96.24
57628;BME280;43451;49.060;10.616;2022-08-19T11:31:41;96358.00;;;19.81;98.31
57628;BME280;43451;49.060;10.616;2022-08-19T11:34:07;96346.50;;;19.92;98.05
57628;BME280;43451;49.060;10.616;2022-08-19T11:36:33;96352.31;;;19.85;99.84
57628;BME280;43451;49.060;10.616;2022-08-19T11:38:59;96348.53;;;19.64;100.00
57628;BME280;43451;49.060;10.616;2022-08-19T11:41:25;96345.00;;;19.54;100.00
57628;BME280;43451;49.060;10.616;2022-08-19T11:43:51;96347.75;;;19.45;100.00
57628;BME280;43451;49.060;10.616;2022-08-19T11:46:19;96344.84;;;19.39;100.00
57628;BME280;43451;49.060;10.616;2022-08-19T11:48:44;96345.75;;;19.55;100.00
57628;BME280;43451;49.060;10.616;2022-08-19T11:51:11;96344.06;;;19.39;100.00
57628;BME280;43451;49.060;10.616;2022-08-19T11:53:36;96343.44;;;19.53;100.00
57628;BME280;43451;49.060;10.616;2022-08-19T11:56:02;96352.47;;;19.63;100.00
57628;BME280;43451;49.060;10.616;2022-08-19T11:58:28;96355.56;;;19.65;100.00
57628;BME280;43451;49.060;10.616;2022-08-19T12:00:54;96354.94;;;19.52;100.00
57628;BME280;43451;49.060;10.616;2022-08-19T12:03:19;96357.22;;;19.53;100.00
57628;BME280;43451;49.060;10.616;2022-08-19T12:05:44;96348.97;;;19.44;100.00
57628;BME280;43451;49.060;10.616;2022-08-19T12:08:10;96357.69;;;19.42;100.00
57628;BME280;43451;49.060;10.616;2022-08-19T12:10:37;96361.22;;;19.43;100.00
57628;BME280;43451;49.060;10.616;2022-08-19T12:13:02;96367.81;;;19.55;100.00
57628;BME280;43451;49.060;10.616;2022-08-19T12:15:28;96359.69;;;19.60;100.00
57628;BME280;43451;49.060;10.616;2022-08-19T12:17:54;96366.59;;;19.65;100.00
57628;BME280;43451;49.060;10.616;2022-08-19T12:20:21;96371.75;;;19.63;100.00
57628;BME280;43451;49.060;10.616;2022-08-19T12:22:47;96362.75;;;19.62;100.00
57628;BME280;43451;49.060;10.616;2022-08-19T12:25:13;96367.19;;;19.51;100.00
57628;BME280;43451;49.060;10.616;2022-08-19T12:27:38;96368.28;;;19.35;100.00
57628;BME280;43451;49.060;10.616;2022-08-19T12:30:04;96365.63;;;19.31;100.00
57628;BME280;43451;49.060;10.616;2022-08-19T12:32:30;96368.88;;;19.30;100.00
57628;BME280;43451;49.060;10.616;2022-08-19T12:34:55;96364.56;;;19.19;100.00
57628;BME280;43451;49.060;10.616;2022-08-19T12:37:20;96360.88;;;19.04;100.00
57628;BME280;43451;49.060;10.616;2022-08-19T12:39:45;96357.03;;;19.01;100.00
57628;BME280;43451;49.060;10.616;2022-08-19T12:42:11;96356.59;;;19.03;100.00
57628;BME280;43451;49.060;10.616;2022-08-19T12:44:38;96349.53;;;19.02;100.00
57628;BME280;43451;49.060;10.616;2022-08-19T12:47:04;96359.34;;;19.03;100.00
57628;BME280;43451;49.060;10.616;2022-08-19T12:49:30;96352.75;;;19.00;100.00
57628;BME280;43451;49.060;10.616;2022-08-19T12:51:58;96359.19;;;18.97;100.00